Tiempo atmosférico en la estación meteorológica de Morón De Almazán , Soria (978 m.)



Fecha
DESCASC
Temp. máxima en grados centígrados (hora)
DESCASC
Temp. mínima en grados centígrados (hora)
DESCASC
Temp. media en grados centígrados
DESCASC
Racha de viento máxima en m/sg (hora)
DESCASC
Velocidad máxima media en intervalos de 10 minutos(hora)
DESCASC
Precipitaciones diarias en mm
DESCASC
Precipitaciones de 00:00 a 06:00 en mm
DESCASC
Precipitaciones de 06:00 a 12:00 en mm
DESCASC
Precipitaciones de 12:00 a 18:00 en mm
DESCASC
Precipitaciones de 18:00 a 24:00 en mm
DESCASC
20-02-2020 16.7 (15:50) -5.1 (07:10) 5.8 6.94 (14:20) 5.28 (17:10) 0 0 0 0 0
19-02-2020 15.4 (16:50) -6.2 (08:20) 4.6 3.89 (16:20) 1.94 (04:50) 0 0 0 0 0
18-02-2020 13.4 (16:30) -2.6 (07:40) 5.4 6.94 (21:30) 4.72 (21:30) 0 0 0 0 0
17-02-2020 11.7 (15:40) 3.6 (04:30) 7.6 11.94 (15:50) 7.5 (15:50) 0.2 0 0 0.2 0
16-02-2020 15.8 (15:50) 2.3 (00:00) 9.1 11.67 (13:50) 7.5 (14:00) 0 0 0 0 0
15-02-2020 16.6 (15:20) -2.8 (07:50) 6.9 7.5 (16:00) 4.72 (21:20) 0 0 0 0 0
14-02-2020 15.9 (16:30) 0.4 (00:00) 8.1 6.67 (09:20) 4.72 (10:30) 0 0 0 0 0
13-02-2020 12.9 (14:30) 1.4 (00:00) 7.1 12.22 (15:10) 9.44 (15:00) 0 0 0 0 0
12-02-2020 13.1 (14:50) 4.2 (00:00) 8.7 8.33 (22:30) 4.44 (22:50) 0.2 0 0 0 0.2
11-02-2020 13.8 (15:10) 7 (00:00) 10.4 10.28 (14:30) 7.78 (14:30) 0 0 0 0 0
10-02-2020 13.2 (15:10) 6.3 (00:00) 9.8 11.39 (14:00) 8.33 (14:10) 0 0 0 0 0
09-02-2020 11 (15:50) -0.6 (-00:0) 5.2 10.56 (17:30) 7.22 (17:30) 0 0 0 0 0
08-02-2020 10.2 (14:20) -1.4 (-00:0) 4.4 7.5 (16:20) 4.72 (15:50) 0.8 0 0 0.6 0.2
07-02-2020 12.7 (14:50) -0.8 (-00:0) 5.9 10.56 (15:30) 7.5 (15:40) 0 0 0 0 0
06-02-2020 14.6 (15:50) -2.6 (-00:0) 6 7.5 (12:00) 5.28 (12:00) 0 0 0 0 0
05-02-2020 11.4 (16:40) -2.6 (-00:0) 4.4 6.39 (15:20) 3.89 (13:40) 0 0 0 0 0
04-02-2020 15.3 (15:40) 1.3 (00:00) 8.3 11.94 (18:00) 8.89 (17:50) 0 0 0 0 0
03-02-2020 20.9 (15:00) 2.1 (05:00) 11.5 8.06 (16:30) 5 (16:30) 0.2 0 0.2 0 0
02-02-2020 16.3 (16:00) 5.8 (00:00) 11 8.33 (12:40) 5.28 (12:40) 0 0 0 0 0
01-02-2020 14.4 (16:20) 5.6 (00:00) 10 11.11 (12:40) 7.78 (11:20) 0.2 0.2 0 0 0
31-01-2020 12.5 (14:30) 6.8 (00:00) 9.7 10 (14:30) 6.67 (11:30) 1.2 1 0.2 0 0
30-01-2020 11.4 (13:30) 6.8 (00:00) 9.1 11.39 (15:30) 7.5 (11:30) 0.8 0 0 0 0.8
29-01-2020 13.6 (15:30) 7.9 (00:00) 10.8 11.67 (13:40) 8.06 (12:20) 0.6 0.6 0 0 0
28-01-2020 11.2 (15:40) 5 (00:00) 8.1 12.78 (01:10) 7.78 (01:10) 3.4 0.2 0.6 2.6 0
27-01-2020 6.2 (14:50) 0.4 (00:00) 3.3 16.94 (17:40) 11.39 (16:30) 0.2 0 0 0.2 0
26-01-2020 8.5 (15:50) 0.6 (00:00) 4.6 9.72 (14:20) 6.67 (14:20) 0.4 0.4 0 0 0
25-01-2020 6.9 (15:40) 2.2 (00:00) 4.6 6.39 (17:00) 4.17 (14:00) 4.8 0 2.4 0.8 1.6
24-01-2020 6.9 (11:20) 0.4 (00:00) 3.7 5.83 (15:30) 3.61 (00:20) 0.4 0 0 0 0.4
23-01-2020 9.2 (15:00) 1.2 (00:00) 5.2 6.67 (03:40) 3.89 (03:10) 0 0 0 0 0
22-01-2020 6.1 (14:20) 0.1 (00:00) 3.1 6.67 (20:00) 4.44 (20:00) 1.6 1.6 0 0 0

Gráficas

Temp. máximas Temp. mínimas Temp. medias Precipitaciones Rachas de viento máximas Velocidades máximas media en intervalos de 10 minutos

Datos horarios

Fecha y hora oficial Temperatura (ºC) Velocidad del viento (km/h) Dirección del viento Racha (km/h) Dirección de racha Precipitación (mm) Presión (hPa) Tendencia (hPa) Humedad (%)
2020-02-20 23:00:00 -0.5 2 Este 7 Este 0 -- -- 81
2020-02-20 22:00:00 0.5 3 Este 7 Nordeste 0 -- -- 77
2020-02-20 21:00:00 1.8 5 Este 6 Este 0 -- -- 70
2020-02-20 20:00:00 4.6 0 Calma 11 Nordeste 0 -- -- 63
2020-02-20 19:00:00 8 5 Oeste 15 Oeste 0 -- -- 53
2020-02-20 18:00:00 15.1 12 Oeste 25 Oeste 0 -- -- 33
2020-02-20 17:00:00 16.2 18 Oeste 25 Oeste 0 -- -- 28
2020-02-20 16:00:00 16.2 16 Oeste 23 Oeste 0 -- -- 29
2020-02-20 15:00:00 16 13 Oeste 25 Sudoeste 0 -- -- 35
2020-02-20 14:00:00 15 16 Oeste 25 Oeste 0 -- -- 33
2020-02-20 13:00:00 13.3 12 Oeste 20 Oeste 0 -- -- 42
2020-02-20 12:00:00 10.3 13 Oeste 21 Oeste 0 -- -- 48
2020-02-20 11:00:00 7.7 4 Noroeste 8 Noroeste 0 -- -- 61
2020-02-20 10:00:00 3.7 0 Calma 3 Noroeste 0 -- -- 72
2020-02-20 09:00:00 -1.8 0 Calma 6 Este 0 -- -- 87
2020-02-20 08:00:00 -4.9 4 Este 9 Este 0 -- -- 92
2020-02-20 07:00:00 -5 3 Este 6 Este 0 -- -- 92
2020-02-20 06:00:00 -- -- -- -- -- -- -- -- --
2020-02-20 05:00:00 -4.7 4 Este 6 Este 0 -- -- 93
2020-02-20 04:00:00 -4.4 2 Este 4 Este 0 -- -- 91
2020-02-20 03:00:00 -4 3 Este 4 Este 0 -- -- 92
2020-02-20 02:00:00 -3.4 4 Este 5 Este 0 -- -- 91
2020-02-20 01:00:00 -2.8 4 Este 7 Este 0 -- -- 89
2020-02-20 00:00:00 -2.1 0 Calma 5 Este 0 -- -- 88
2020-02-19 23:00:00 -1.5 3 Este 7 Nordeste 0 -- -- 86
2020-02-19 22:00:00 -0.4 6 Este 8 Nordeste 0 -- -- 80
2020-02-19 21:00:00 0.9 4 Este 5 Este 0 -- -- 76
2020-02-19 20:00:00 2.9 0 Calma 6 Sudoeste 0 -- -- 68
2020-02-19 19:00:00 6.6 2 Sudoeste 8 Oeste 0 -- -- 60
2020-02-19 18:00:00 13 7 Oeste 10 Oeste 0 -- -- 35
2020-02-19 17:00:00 14.7 7 Oeste 14 Oeste 0 -- -- 37
2020-02-19 16:00:00 13.9 5 Noroeste 11 Noroeste 0 -- -- 40
2020-02-19 15:00:00 12.8 3 Noroeste 13 Oeste 0 -- -- 37
2020-02-19 14:00:00 11.8 5 Oeste 13 Oeste 0 -- -- 35
2020-02-19 13:00:00 10.5 4 Sudoeste 9 Sudoeste 0 -- -- 46
2020-02-19 12:00:00 7.8 4 Norte 9 Noroeste 0 -- -- 53
2020-02-19 11:00:00 6.3 2 Sur 5 Sur 0 -- -- 68
2020-02-19 10:00:00 1 0 Calma 6 Noroeste 0 -- -- 84
2020-02-19 09:00:00 -3.7 0 Calma 4 Este 0 -- -- 95
2020-02-19 08:00:00 -6 0 Calma 3 Sur 0 -- -- 97
2020-02-19 07:00:00 -5.6 0 Calma 4 Este 0 -- -- 97
2020-02-19 06:00:00 -5.6 4 Este 5 Este 0 -- -- 96
2020-02-19 05:00:00 -4.8 2 Este 10 Nordeste 0 -- -- 94
2020-02-19 04:00:00 -4.2 2 Sudeste 5 Este 0 -- -- 96
2020-02-19 03:00:00 -3.7 3 Este 6 Este 0 -- -- 95
2020-02-19 02:00:00 -2.5 0 Calma 5 Sudeste 0 -- -- 95
2020-02-19 01:00:00 -1.5 4 Este 6 Este 0 -- -- 90
2020-02-19 00:00:00 1.2 3 Oeste 14 Nordeste 0 -- -- 82
2020-02-18 23:00:00 1.5 4 Sudoeste 24 Nordeste 0 -- -- 84
2020-02-18 22:00:00 2.8 14 Nordeste 25 Norte 0 -- -- 77
2020-02-18 21:00:00 3.2 11 Nordeste 23 Norte 0 -- -- 75
2020-02-18 20:00:00 4.6 13 Nordeste 22 Norte 0 -- -- 71
2020-02-18 19:00:00 6 15 Noroeste 17 Noroeste 0 -- -- 66
2020-02-18 18:00:00 11 6 Oeste 16 Oeste 0 -- -- 45
2020-02-18 17:00:00 11.8 7 Sudoeste 14 Oeste 0 -- -- 46
2020-02-18 16:00:00 11.8 6 Noroeste 15 Noroeste 0 -- -- 43
2020-02-18 15:00:00 11.8 4 Nordeste 12 Norte 0 -- -- 47
2020-02-18 14:00:00 9.8 10 Norte 15 Nordeste 0 -- -- 50
2020-02-18 13:00:00 10.4 4 Nordeste 18 Nordeste 0 -- -- 50
2020-02-18 12:00:00 8.8 10 Nordeste 19 Nordeste 0 -- -- 55
2020-02-18 11:00:00 6.6 12 Nordeste 18 Nordeste 0 -- -- 67
2020-02-18 10:00:00 5.2 12 Nordeste 20 Nordeste 0 -- -- 74
2020-02-18 09:00:00 0.7 5 Este 10 Este 0 -- -- 95
2020-02-18 08:00:00 -2 4 Sudeste 6 Este 0 -- -- 100
2020-02-18 07:00:00 -2.4 0 Calma 11 Norte 0 -- -- 99
2020-02-18 06:00:00 -2.1 0 Calma 8 Este 0 -- -- 99
2020-02-18 05:00:00 -1.7 3 Nordeste 7 Nordeste 0 -- -- 98
2020-02-18 04:00:00 -0.6 4 Este 9 Nordeste 0 -- -- 97
2020-02-18 03:00:00 1.5 3 Sudeste 13 Este 0 -- -- 94
2020-02-18 02:00:00 3.4 5 Sudeste 15 Nordeste 0 -- -- 90
2020-02-18 01:00:00 3.8 8 Este 14 Nordeste 0 -- -- 88
2020-02-18 00:00:00 4.4 10 Este 22 Nordeste 0 -- -- 87
2020-02-17 23:00:00 4.8 15 Nordeste 24 Nordeste 0 -- -- 88
2020-02-17 22:00:00 4.9 14 Nordeste 26 Nordeste 0 -- -- 89
2020-02-17 21:00:00 5.7 12 Nordeste 19 Nordeste 0 -- -- 89
2020-02-17 20:00:00 5.9 12 Nordeste 24 Norte 0 -- -- 90
2020-02-17 19:00:00 7.6 11 Oeste 21 Oeste 0 -- -- 78
2020-02-17 18:00:00 9.1 14 Oeste 35 Oeste 0 -- -- 79
2020-02-17 17:00:00 10.2 22 Oeste 39 Oeste 0 -- -- 78
2020-02-17 16:00:00 11.4 24 Oeste 43 Oeste 0 -- -- 87
2020-02-17 15:00:00 10.3 13 Sudoeste 26 Sudoeste 0.2 -- -- 96
2020-02-17 14:00:00 9.6 17 Sudoeste 26 Sudoeste 0 -- -- 90
2020-02-17 13:00:00 8.8 13 Sudoeste 26 Sudoeste 0 -- -- 95
2020-02-17 12:00:00 8.5 14 Sudoeste 26 Sudoeste 0 -- -- 90
2020-02-17 11:00:00 8.5 9 Sudoeste 19 Sudoeste 0 -- -- 90
2020-02-17 10:00:00 7.7 13 Oeste 20 Oeste 0 -- -- 94
2020-02-17 09:00:00 7 9 Oeste 25 Sudoeste 0 -- -- 97
2020-02-17 08:00:00 6.1 13 Sudoeste 22 Sudoeste 0 -- -- 99
2020-02-17 07:00:00 6 14 Sudoeste 24 Sudoeste 0 -- -- 99
2020-02-17 06:00:00 6 16 Sudoeste 27 Sudoeste 0 -- -- 98
2020-02-17 05:00:00 5.6 8 Sudoeste 15 Sudoeste 0 -- -- 100
2020-02-17 04:00:00 5 6 Oeste 18 Sudoeste 0 -- -- 94
2020-02-17 03:00:00 7 13 Sudoeste 20 Sur 0 -- -- 92
2020-02-17 02:00:00 7.1 12 Sudoeste 18 Sudoeste 0 -- -- 91
2020-02-17 01:00:00 7 10 Sudoeste 15 Sudoeste 0 -- -- 92
2020-02-17 00:00:00 8.6 10 Sudoeste 22 Sudoeste 0 -- -- 87
2020-02-16 23:00:00 9.4 13 Sudoeste 27 Sudoeste 0 -- -- 84
2020-02-16 22:00:00 9.9 14 Sudoeste 31 Sudoeste 0 -- -- 80
2020-02-16 21:00:00 9.5 16 Sudoeste 28 Sur 0 -- -- 83
2020-02-16 20:00:00 10 17 Sudoeste 30 Sudoeste 0 -- -- 80
2020-02-16 19:00:00 10.7 21 Sudoeste 33 Sudoeste 0 -- -- 74
2020-02-16 18:00:00 13.6 22 Sudoeste 36 Sudoeste 0 -- -- 62
2020-02-16 17:00:00 15 23 Sudoeste 38 Sudoeste 0 -- -- 56
2020-02-16 16:00:00 15.6 23 Sudoeste 37 Sur 0 -- -- 56
2020-02-16 15:00:00 15 27 Sudoeste 41 Sudoeste 0 -- -- 59
2020-02-16 14:00:00 14.5 27 Sudoeste 42 Sudoeste 0 -- -- 61
2020-02-16 13:00:00 14.2 22 Sudoeste 39 Sur 0 -- -- 63
2020-02-16 12:00:00 12.4 24 Sudoeste 36 Sur 0 -- -- 70
2020-02-16 11:00:00 11.8 7 Sudoeste 12 Sur 0 -- -- 72
2020-02-16 10:00:00 7.8 2 Norte 4 Nordeste 0 -- -- 82
2020-02-16 09:00:00 2.8 4 Noroeste 10 Oeste 0 -- -- 98
2020-02-16 08:00:00 3.1 9 Noroeste 21 Sudoeste 0 -- -- 95
2020-02-16 07:00:00 4.3 11 Oeste 21 Sudoeste 0 -- -- 95
2020-02-16 06:00:00 4.2 11 Oeste 20 Sur 0 -- -- 94
2020-02-16 05:00:00 6.2 7 Sudoeste 31 Sudoeste 0 -- -- 87
2020-02-16 04:00:00 7.3 16 Sudoeste 31 Sudoeste 0 -- -- 83
2020-02-16 03:00:00 4.5 4 Sur 10 Sudoeste 0 -- -- 89
2020-02-16 02:00:00 6.6 10 Sur 23 Sur 0 -- -- 86
2020-02-16 01:00:00 4.6 4 Sudoeste 17 Sur 0 -- -- 95
2020-02-16 00:00:00 4.9 4 Oeste 14 Sur 0 -- -- 92
2020-02-15 23:00:00 6.8 3 Noroeste 23 Sur 0 -- -- 86
2020-02-15 22:00:00 8.1 17 Sudoeste 25 Sudoeste 0 -- -- 82
2020-02-15 21:00:00 8.4 16 Sudoeste 23 Sur 0 -- -- 81
2020-02-15 20:00:00 9.4 15 Sudoeste 22 Sur 0 -- -- 75
2020-02-15 19:00:00 10.5 13 Sudoeste 23 Sudoeste 0 -- -- 65
2020-02-15 18:00:00 12.3 13 Sudoeste 25 Sur 0 -- -- 56
2020-02-15 17:00:00 14.1 15 Sudoeste 26 Sudoeste 0 -- -- 54
2020-02-15 16:00:00 15.7 15 Sudoeste 27 Oeste 0 -- -- 52
2020-02-15 15:00:00 16.4 12 Sudoeste 19 Sudoeste 0 -- -- 50
2020-02-15 14:00:00 14.9 8 Oeste 16 Oeste 0 -- -- 51
2020-02-15 13:00:00 13.4 10 Sudoeste 20 Oeste 0 -- -- 61
2020-02-15 12:00:00 11.6 6 Oeste 16 Oeste 0 -- -- 74
2020-02-15 11:00:00 8.8 10 Oeste 13 Oeste 0 -- -- 82
2020-02-15 10:00:00 6.7 0 Calma 8 Nordeste 0 -- -- 86
2020-02-15 09:00:00 -0.8 4 Este 7 Este 0 -- -- 100
2020-02-15 08:00:00 -2.6 4 Este 6 Este 0 -- -- 100
2020-02-15 07:00:00 -2.2 0 Calma 4 Este 0 -- -- 99
2020-02-15 06:00:00 -1.4 4 Este 8 Este 0 -- -- 99
2020-02-15 05:00:00 -1.2 3 Este 5 Este 0 -- -- 99
2020-02-15 04:00:00 -1 0 Calma 6 Este 0 -- -- 98
2020-02-15 03:00:00 -0.6 5 Este 6 Nordeste 0 -- -- 99
2020-02-15 02:00:00 -0.5 3 Este 4 Este 0 -- -- 98
2020-02-15 01:00:00 -0.1 2 Este 6 Este 0 -- -- 98
2020-02-15 00:00:00 0.5 0 Calma 4 Este 0 -- -- 97
2020-02-14 23:00:00 1.7 3 Este 5 Este 0 -- -- 95
2020-02-14 22:00:00 2.3 3 Nordeste 7 Este 0 -- -- 95
2020-02-14 21:00:00 3.6 4 Este 6 Nordeste 0 -- -- 91
2020-02-14 20:00:00 5.2 3 Este 5 Nordeste 0 -- -- 85
2020-02-14 19:00:00 9.1 0 Calma 8 Noroeste 0 -- -- 76
2020-02-14 18:00:00 14.6 4 Oeste 12 Noroeste 0 -- -- 57
2020-02-14 17:00:00 15.2 5 Oeste 12 Noroeste 0 -- -- 54
2020-02-14 16:00:00 15.2 4 Noroeste 9 Oeste 0 -- -- 54
2020-02-14 15:00:00 14.9 3 Noroeste 13 Oeste 0 -- -- 57
2020-02-14 14:00:00 13 5 Sudoeste 15 Oeste 0 -- -- 67
2020-02-14 13:00:00 11.5 8 Sudoeste 15 Oeste 0 -- -- 71
2020-02-14 12:00:00 9.4 9 Oeste 18 Oeste 0 -- -- 80
2020-02-14 11:00:00 7.6 13 Oeste 23 Oeste 0 -- -- 87
2020-02-14 10:00:00 6.4 14 Oeste 24 Noroeste 0 -- -- 92
2020-02-14 09:00:00 5.8 12 Oeste 21 Oeste 0 -- -- 97
2020-02-14 08:00:00 5.1 9 Oeste 15 Oeste 0 -- -- 100
2020-02-14 07:00:00 3 0 Calma 6 Este 0 -- -- 100
2020-02-14 06:00:00 0.6 0 Calma 4 Noroeste 0 -- -- 100
2020-02-14 05:00:00 1.6 3 Noroeste 7 Noroeste 0 -- -- 100
2020-02-14 04:00:00 2.3 5 Oeste 12 Noroeste 0 -- -- 100
2020-02-14 03:00:00 2.2 9 Noroeste 10 Noroeste 0 -- -- 99
2020-02-14 02:00:00 1 4 Este 8 Oeste 0 -- -- 100
2020-02-14 01:00:00 2.2 4 Noroeste 11 Oeste 0 -- -- 98
2020-02-14 00:00:00 1.7 8 Oeste 11 Oeste 0 -- -- 99
2020-02-13 23:00:00 2.4 5 Oeste 9 Noroeste 0 -- -- 94
2020-02-13 22:00:00 4.5 0 Calma 16 Oeste 0 -- -- 90
2020-02-13 21:00:00 4.4 4 Oeste 15 Oeste 0 -- -- 95
2020-02-13 20:00:00 7.5 13 Oeste 17 Oeste 0 -- -- 85
2020-02-13 19:00:00 8 13 Oeste 24 Oeste 0 -- -- 82
2020-02-13 18:00:00 10.7 18 Oeste 35 Oeste 0 -- -- 72
2020-02-13 17:00:00 11.8 24 Oeste 38 Oeste 0 -- -- 68
2020-02-13 16:00:00 12.4 30 Oeste 44 Oeste 0 -- -- 66
2020-02-13 15:00:00 12.6 34 Oeste 43 Oeste 0 -- -- 70
2020-02-13 14:00:00 12 25 Oeste 36 Oeste 0 -- -- 78
2020-02-13 13:00:00 10.2 19 Oeste 28 Oeste 0 -- -- 85
2020-02-13 12:00:00 9.3 12 Oeste 24 Oeste 0 -- -- 94
2020-02-13 11:00:00 8.3 13 Oeste 24 Oeste 0 -- -- 95
2020-02-13 10:00:00 8.5 14 Sudoeste 23 Sudoeste 0 -- -- 90
2020-02-13 09:00:00 7.6 3 Sudoeste 15 Sudoeste 0 -- -- 93
2020-02-13 08:00:00 7.2 11 Sudoeste 17 Sudoeste 0 -- -- 94
2020-02-13 07:00:00 7.1 12 Sudoeste 21 Sudoeste 0 -- -- 94
2020-02-13 06:00:00 6.6 13 Sur 25 Sur 0 -- -- 95
2020-02-13 05:00:00 6.4 12 Sudoeste 29 Sudoeste 0 -- -- 95
2020-02-13 04:00:00 6.8 15 Sudoeste 27 Sudoeste 0 -- -- 93
2020-02-13 03:00:00 7 19 Sudoeste 30 Sudoeste 0 -- -- 91
2020-02-13 02:00:00 6.4 2 Sudoeste 17 Sudoeste 0 -- -- 93
2020-02-13 01:00:00 7.4 9 Sudoeste 18 Sur 0 -- -- 89
2020-02-13 00:00:00 7.5 4 Este 27 Sudoeste 0 -- -- 89
2020-02-12 23:00:00 8 12 Sudoeste 30 Sudoeste 0 -- -- 89
2020-02-12 22:00:00 8.8 8 Sudoeste 20 Sur 0.2 -- -- 88
2020-02-12 21:00:00 8.9 4 Sudeste 13 Sur 0 -- -- 91
2020-02-12 20:00:00 9.1 2 Sudeste 9 Sudeste 0 -- -- 90
2020-02-12 19:00:00 9.6 5 Sudeste 8 Sudeste 0 -- -- 87
2020-02-12 18:00:00 10.5 3 Sudeste 8 Sudeste 0 -- -- 82
2020-02-12 17:00:00 11.3 5 Este 9 Este 0 -- -- 79
2020-02-12 16:00:00 11.7 3 Sudeste 12 Este 0 -- -- 75
2020-02-12 15:00:00 12.1 6 Sudeste 16 Este 0 -- -- 73
2020-02-12 14:00:00 10.2 9 Sudeste 15 Este 0 -- -- 80
2020-02-12 13:00:00 9.4 11 Sudeste 16 Sudeste 0 -- -- 84
2020-02-12 12:00:00 9.5 10 Sudeste 15 Sudeste 0 -- -- 86
2020-02-12 11:00:00 7.9 12 Este 18 Sudeste 0 -- -- 96
2020-02-12 10:00:00 6 3 Sudeste 5 Sur 0 -- -- 99
2020-02-12 09:00:00 4.7 0 Calma 4 Este 0 -- -- 100
2020-02-12 08:00:00 4.6 0 Calma 6 Sudeste 0 -- -- 99
2020-02-12 07:00:00 5.3 0 Calma 6 Este 0 -- -- 99
2020-02-12 06:00:00 5.5 3 Sudeste 14 Nordeste 0 -- -- 99
2020-02-12 05:00:00 4.8 5 Nordeste 9 Nordeste 0 -- -- 99
2020-02-12 04:00:00 4.4 3 Este 6 Nordeste 0 -- -- 98
2020-02-12 03:00:00 5.3 0 Calma 9 Sudeste 0 -- -- 98
2020-02-12 02:00:00 4.8 3 Este 6 Este 0 -- -- 97
2020-02-12 01:00:00 5.6 0 Calma 8 Nordeste 0 -- -- 96
2020-02-12 00:00:00 7.1 2 Nordeste 5 Este 0 -- -- 93
2020-02-11 23:00:00 7.2 0 Calma 6 Norte 0 -- -- 92
2020-02-11 22:00:00 8.2 0 Calma 9 Oeste 0 -- -- 90
2020-02-11 21:00:00 9.3 7 Oeste 21 Oeste 0 -- -- 84
2020-02-11 20:00:00 10 13 Oeste 21 Oeste 0 -- -- 82
2020-02-11 19:00:00 10.9 14 Oeste 25 Oeste 0 -- -- 76
2020-02-11 18:00:00 11.6 17 Oeste 28 Oeste 0 -- -- 74
2020-02-11 17:00:00 12.5 19 Oeste 35 Oeste 0 -- -- 71
2020-02-11 16:00:00 13.4 22 Oeste 35 Oeste 0 -- -- 67
2020-02-11 15:00:00 13.7 24 Oeste 37 Oeste 0 -- -- 63
2020-02-11 14:00:00 11.7 21 Oeste 36 Oeste 0 -- -- 72
2020-02-11 13:00:00 12.4 22 Oeste 30 Oeste 0 -- -- 71
2020-02-11 12:00:00 11.6 19 Oeste 27 Oeste 0 -- -- 77
2020-02-11 11:00:00 10.6 19 Oeste 31 Oeste 0 -- -- 82
2020-02-11 10:00:00 8 19 Oeste 27 Oeste 0 -- -- 92
2020-02-11 09:00:00 7.6 17 Oeste 30 Oeste 0 -- -- 94
2020-02-11 08:00:00 7.8 19 Oeste 29 Oeste 0 -- -- 93
2020-02-11 07:00:00 7.7 19 Oeste 29 Oeste 0 -- -- 93
2020-02-11 06:00:00 8.2 24 Oeste 34 Oeste 0 -- -- 91
2020-02-11 05:00:00 8.4 22 Oeste 35 Oeste 0 -- -- 90
2020-02-11 04:00:00 8.3 15 Oeste 27 Oeste 0 -- -- 92
2020-02-11 03:00:00 8.2 9 Oeste 15 Oeste 0 -- -- 92
2020-02-11 02:00:00 7.4 8 Oeste 17 Oeste 0 -- -- 94
2020-02-11 01:00:00 8.1 10 Oeste 29 Oeste 0 -- -- 90
2020-02-11 00:00:00 8.7 12 Oeste 28 Oeste 0 -- -- 87
2020-02-10 23:00:00 7.9 5 Oeste 17 Oeste 0 -- -- 92
2020-02-10 22:00:00 8.2 12 Oeste 17 Oeste 0 -- -- 93
2020-02-10 21:00:00 6.3 9 Oeste 18 Oeste 0 -- -- 94
2020-02-10 20:00:00 8.5 10 Sudoeste 18 Oeste 0 -- -- 89
2020-02-10 19:00:00 8.5 12 Noroeste 29 Oeste 0 -- -- 90
2020-02-10 18:00:00 12 20 Oeste 29 Oeste 0 -- -- 74
2020-02-10 17:00:00 12 20 Oeste 36 Oeste 0 -- -- 75
2020-02-10 16:00:00 12.2 27 Oeste 41 Oeste 0 -- -- 77
2020-02-10 15:00:00 12.5 28 Oeste 40 Oeste 0 -- -- 76
2020-02-10 14:00:00 11.9 28 Oeste 41 Oeste 0 -- -- 80
2020-02-10 13:00:00 10.9 21 Oeste 34 Oeste 0 -- -- 90
2020-02-10 12:00:00 10.2 23 Oeste 35 Oeste 0 -- -- 93
2020-02-10 11:00:00 9.7 22 Oeste 40 Oeste 0 -- -- 92
2020-02-10 10:00:00 9.3 14 Oeste 31 Oeste 0 -- -- 91
2020-02-10 09:00:00 8.3 15 Oeste 32 Oeste 0 -- -- 95
2020-02-10 08:00:00 7.7 16 Oeste 25 Oeste 0 -- -- 97
2020-02-10 07:00:00 8.1 19 Oeste 31 Oeste 0 -- -- 93
2020-02-10 06:00:00 7.4 19 Oeste 27 Oeste 0 -- -- 94
2020-02-10 05:00:00 7.2 13 Sudoeste 23 Sudoeste 0 -- -- 90
2020-02-10 04:00:00 7.2 11 Sudoeste 25 Sudoeste 0 -- -- 89
2020-02-10 03:00:00 7.3 13 Sudoeste 34 Sudoeste 0 -- -- 89
2020-02-10 02:00:00 7.3 16 Sudoeste 28 Sudoeste 0 -- -- 88
2020-02-10 01:00:00 7.1 15 Sudoeste 28 Sudoeste 0 -- -- 88
2020-02-10 00:00:00 7.1 16 Sudoeste 27 Sudoeste 0 -- -- 88
2020-02-09 23:00:00 7.2 15 Sudoeste 28 Sudoeste 0 -- -- 86
2020-02-09 22:00:00 7 18 Sudoeste 29 Sudoeste 0 -- -- 86
2020-02-09 21:00:00 6.8 21 Sudoeste 34 Sur 0 -- -- 86
2020-02-09 20:00:00 7 20 Sudoeste 35 Sur 0 -- -- 86
2020-02-09 19:00:00 7.4 22 Sudoeste 35 Sudoeste 0 -- -- 83
2020-02-09 18:00:00 8 24 Sudoeste 38 Sudoeste 0 -- -- 80
2020-02-09 17:00:00 8.7 24 Sudoeste 34 Sudoeste 0 -- -- 79
2020-02-09 16:00:00 9.9 19 Sudoeste 31 Sur 0 -- -- 74
2020-02-09 15:00:00 10.1 19 Sudoeste 30 Sur 0 -- -- 73
2020-02-09 14:00:00 9.7 17 Sudoeste 31 Sudoeste 0 -- -- 75
2020-02-09 13:00:00 9.6 15 Sudoeste 30 Oeste 0 -- -- 76
2020-02-09 12:00:00 9.7 13 Sudoeste 24 Sudoeste 0 -- -- 76
2020-02-09 11:00:00 8.2 14 Sudoeste 27 Sudoeste 0 -- -- 82
2020-02-09 10:00:00 6.3 7 Oeste 19 Sudoeste 0 -- -- 93
2020-02-09 09:00:00 2.6 2 Sudeste 5 Nordeste 0 -- -- 100
2020-02-09 08:00:00 0.9 3 Este 5 Nordeste 0 -- -- 100
2020-02-09 07:00:00 -0.6 3 Norte 5 Norte 0 -- -- 100
2020-02-09 06:00:00 0.7 3 Nordeste 6 Norte 0 -- -- 100
2020-02-09 05:00:00 1.6 4 Noroeste 14 Sudoeste 0 -- -- 100
2020-02-09 04:00:00 3.6 9 Sudoeste 22 Sur 0 -- -- 100
2020-02-09 03:00:00 3.6 7 Oeste 19 Oeste 0 -- -- 100
2020-02-09 02:00:00 3.5 7 Sudoeste 10 Sudoeste 0 -- -- 99
2020-02-09 01:00:00 3.7 2 Noroeste 7 Sudoeste 0 -- -- 100
2020-02-09 00:00:00 2.3 2 Sudoeste 11 Sudoeste 0 -- -- 100
2020-02-08 23:00:00 0.9 4 Este 7 Nordeste 0 -- -- 99
2020-02-08 22:00:00 3.1 3 Sur 4 Sur 0 -- -- 98
2020-02-08 21:00:00 4.7 0 Calma 12 Oeste 0 -- -- 96
2020-02-08 20:00:00 5 0 Calma 11 Oeste 0 -- -- 95
2020-02-08 19:00:00 6.6 6 Sudoeste 13 Sudoeste 0.2 -- -- 92
2020-02-08 18:00:00 6.7 10 Sudoeste 19 Oeste 0.6 -- -- 93
2020-02-08 17:00:00 8 10 Sudoeste 27 Sudoeste 0 -- -- 82
2020-02-08 16:00:00 8.4 14 Sudoeste 26 Sudoeste 0 -- -- 79
2020-02-08 15:00:00 9.9 12 Sudoeste 18 Sudoeste 0 -- -- 74
2020-02-08 14:00:00 9.9 7 Sur 17 Sur 0 -- -- 76
2020-02-08 13:00:00 9.4 9 Sudoeste 19 Sudoeste 0 -- -- 77
2020-02-08 12:00:00 8.6 7 Sudoeste 13 Sudoeste 0 -- -- 82
2020-02-08 11:00:00 7.5 0 Calma 8 Sudoeste 0 -- -- 90
2020-02-08 10:00:00 5.4 5 Sudoeste 10 Sudoeste 0 -- -- 99
2020-02-08 09:00:00 3.3 2 Nordeste 3 Nordeste 0 -- -- 99
2020-02-08 08:00:00 2.6 0 Calma 4 Noroeste 0 -- -- 99
2020-02-08 07:00:00 2.4 2 Noroeste 6 Sudoeste 0 -- -- 99
2020-02-08 06:00:00 0.6 0 Calma 5 Sudoeste 0 -- -- 99
2020-02-08 05:00:00 -0.5 2 Sudeste 3 Sudeste 0 -- -- 97
2020-02-08 04:00:00 0.3 0 Calma 4 Este 0 -- -- 97
2020-02-08 03:00:00 -1.1 0 Calma 5 Nordeste 0 -- -- 98
2020-02-08 02:00:00 -0.8 3 Nordeste 6 Nordeste 0 -- -- 98
2020-02-08 01:00:00 -0.2 3 Nordeste 9 Nordeste 0 -- -- 97
2020-02-08 00:00:00 1.3 2 Nordeste 8 Nordeste 0 -- -- 94
2020-02-07 23:00:00 0.6 0 Calma 6 Este 0 -- -- 95
2020-02-07 22:00:00 2 0 Calma 3 Oeste 0 -- -- 92
2020-02-07 21:00:00 1.8 4 Oeste 6 Oeste 0 -- -- 93
2020-02-07 20:00:00 3 2 Sudoeste 10 Oeste 0 -- -- 87
2020-02-07 19:00:00 6 6 Oeste 21 Oeste 0 -- -- 79
2020-02-07 18:00:00 10.2 12 Oeste 23 Oeste 0 -- -- 64
2020-02-07 17:00:00 12 16 Oeste 32 Oeste 0 -- -- 56
2020-02-07 16:00:00 12.5 24 Oeste 38 Oeste 0 -- -- 57
2020-02-07 15:00:00 12.7 22 Oeste 36 Oeste 0 -- -- 58
2020-02-07 14:00:00 11.8 21 Oeste 28 Oeste 0 -- -- 61
2020-02-07 13:00:00 10.6 16 Oeste 23 Oeste 0 -- -- 65
2020-02-07 12:00:00 9.8 8 Oeste 13 Oeste 0 -- -- 71
2020-02-07 11:00:00 8.6 0 Calma 4 Noroeste 0 -- -- 73
2020-02-07 10:00:00 4.3 2 Este 6 Este 0 -- -- 90
2020-02-07 09:00:00 0.1 5 Este 7 Este 0 -- -- 97
2020-02-07 08:00:00 -0.4 0 Calma 5 Este 0 -- -- 98
2020-02-07 07:00:00 -0.6 4 Este 5 Este 0 -- -- 97
2020-02-07 06:00:00 -0.3 2 Este 6 Nordeste 0 -- -- 96
2020-02-07 05:00:00 -0.7 3 Nordeste 8 Este 0 -- -- 97
2020-02-07 04:00:00 -0.4 5 Este 9 Este 0 -- -- 96
2020-02-07 03:00:00 0.1 5 Nordeste 7 Nordeste 0 -- -- 96
2020-02-07 02:00:00 0.8 4 Nordeste 6 Nordeste 0 -- -- 95
2020-02-07 01:00:00 1.8 3 Este 6 Nordeste 0 -- -- 92
2020-02-07 00:00:00 1.9 4 Nordeste 8 Este 0 -- -- 89
2020-02-06 23:00:00 2.3 4 Este 8 Este 0 -- -- 90
2020-02-06 22:00:00 3.6 0 Calma 9 Este 0 -- -- 86
2020-02-06 21:00:00 5.1 3 Sudeste 7 Sur 0 -- -- 77
2020-02-06 20:00:00 6.6 5 Sur 9 Sudeste 0 -- -- 70
2020-02-06 19:00:00 7.7 4 Sudeste 10 Sudeste 0 -- -- 66
2020-02-06 18:00:00 10.6 6 Sur 15 Sudoeste 0 -- -- 57
2020-02-06 17:00:00 14.2 12 Sur 21 Sudoeste 0 -- -- 44
2020-02-06 16:00:00 14.2 11 Sur 21 Sur 0 -- -- 45
2020-02-06 15:00:00 14.3 10 Sur 24 Sur 0 -- -- 45
2020-02-06 14:00:00 13.2 11 Sur 27 Sur 0 -- -- 52
2020-02-06 13:00:00 11.8 17 Sur 27 Sur 0 -- -- 52
2020-02-06 12:00:00 10.3 19 Sur 27 Sur 0 -- -- 57
2020-02-06 11:00:00 8.2 14 Sur 22 Sur 0 -- -- 64
2020-02-06 10:00:00 4.9 6 Sudeste 12 Sudeste 0 -- -- 76
2020-02-06 09:00:00 -1.1 3 Este 8 Nordeste 0 -- -- 97
2020-02-06 08:00:00 -1.9 4 Este 9 Este 0 -- -- 94
2020-02-06 07:00:00 -0.7 5 Este 6 Sudeste 0 -- -- 91
2020-02-06 06:00:00 -0.7 7 Este 10 Este 0 -- -- 92
2020-02-06 05:00:00 -0.9 0 Calma 13 Sudeste 0 -- -- 92
2020-02-06 04:00:00 -0.5 4 Este 13 Sudeste 0 -- -- 92
2020-02-06 03:00:00 -0.4 0 Calma 5 Este 0 -- -- 90
2020-02-06 02:00:00 0.9 5 Sudeste 12 Este 0 -- -- 85
2020-02-06 01:00:00 0.7 4 Este 11 Este 0 -- -- 84
2020-02-06 00:00:00 1.1 3 Este 9 Sudeste 0 -- -- 83
2020-02-05 23:00:00 0.8 5 Sudeste 13 Este 0 -- -- 84
2020-02-05 22:00:00 0.5 0 Calma 5 Nordeste 0 -- -- 84
2020-02-05 21:00:00 3.1 7 Sudeste 18 Sudeste 0 -- -- 75
2020-02-05 20:00:00 3.8 10 Sudeste 15 Sudeste 0 -- -- 71
2020-02-05 19:00:00 3.5 6 Este 14 Este 0 -- -- 75
2020-02-05 18:00:00 9.5 9 Este 16 Este 0 -- -- 48
2020-02-05 17:00:00 11.1 8 Este 19 Este 0 -- -- 48
2020-02-05 16:00:00 11.3 11 Este 23 Este 0 -- -- 48
2020-02-05 15:00:00 9.5 13 Este 22 Sudeste 0 -- -- 49
2020-02-05 14:00:00 10 12 Este 21 Este 0 -- -- 47
2020-02-05 13:00:00 9.4 10 Este 15 Este 0 -- -- 52
2020-02-05 12:00:00 8.2 4 Sudeste 13 Sudeste 0 -- -- 53
2020-02-05 11:00:00 7.5 6 Este 19 Nordeste 0 -- -- 51
2020-02-05 10:00:00 3 4 Noroeste 9 Nordeste 0 -- -- 75
2020-02-05 09:00:00 -1.4 0 Calma 8 Norte 0 -- -- 90
2020-02-05 08:00:00 -2.2 2 Este 8 Sur 0 -- -- 90
2020-02-05 07:00:00 -2.1 0 Calma 12 Oeste 0 -- -- 91
2020-02-05 06:00:00 -1 3 Oeste 15 Noroeste 0 -- -- 88
2020-02-05 05:00:00 -1.9 12 Noroeste 16 Noroeste 0 -- -- 92
2020-02-05 04:00:00 -0.2 4 Norte 18 Norte 0 -- -- 88
2020-02-05 03:00:00 0.6 10 Nordeste 14 Norte 0 -- -- 81
2020-02-05 02:00:00 1.5 6 Sur 10 Norte 0 -- -- 78
2020-02-05 01:00:00 0.9 6 Noroeste 18 Nordeste 0 -- -- 82
2020-02-05 00:00:00 2 4 Sudoeste 12 Oeste 0 -- -- 79
2020-02-04 23:00:00 3.1 0 Calma 10 Noroeste 0 -- -- 77
2020-02-04 22:00:00 4.3 3 Sur 27 Nordeste 0 -- -- 75
2020-02-04 21:00:00 5.6 22 Norte 30 Norte 0 -- -- 74
2020-02-04 20:00:00 6 3 Sudoeste 27 Norte 0 -- -- 77
2020-02-04 19:00:00 8 24 Norte 40 Norte 0 -- -- 73
2020-02-04 18:00:00 9.9 32 Norte 43 Norte 0 -- -- 67
2020-02-04 12:00:00 -- -- -- -- -- -- -- -- --
2020-02-04 11:00:00 10.4 8 Oeste 18 Oeste 0 -- -- 82
2020-02-04 10:00:00 6.7 6 Oeste 10 Oeste 0 -- -- 89
2020-02-04 09:00:00 2.2 0 Calma 10 Oeste 0 -- -- 99
2020-02-04 08:00:00 1.7 5 Oeste 8 Oeste 0 -- -- 99
2020-02-04 07:00:00 2.2 3 Oeste 8 Sudoeste 0 -- -- 99
2020-02-04 06:00:00 1.3 0 Calma 6 Noroeste 0 -- -- 98
2020-02-04 05:00:00 2.3 4 Noroeste 10 Noroeste 0 -- -- 96
2020-02-04 04:00:00 2.8 4 Oeste 10 Oeste 0 -- -- 97
2020-02-04 03:00:00 2.2 7 Noroeste 10 Oeste 0 -- -- 94
2020-02-04 02:00:00 2.7 0 Calma 7 Noroeste 0 -- -- 97
2020-02-04 01:00:00 4.1 2 Norte 6 Sur 0 -- -- 93
2020-02-04 00:00:00 3 0 Calma 3 Noroeste 0 -- -- 97
2020-02-03 23:00:00 3.8 0 Calma 3 Este 0 -- -- 92
2020-02-03 22:00:00 5.7 0 Calma 10 Oeste 0 -- -- 88
2020-02-03 21:00:00 6.9 5 Oeste 13 Oeste 0 -- -- 84
2020-02-03 20:00:00 10.9 10 Oeste 21 Oeste 0 -- -- 67
2020-02-03 19:00:00 13.6 14 Sudoeste 23 Sudoeste 0 -- -- 56
2020-02-03 18:00:00 14.9 12 Sudoeste 23 Sudoeste 0 -- -- 57
2020-02-03 17:00:00 18.4 15 Sudoeste 29 Sudoeste 0 -- -- 43
2020-02-03 16:00:00 20 16 Sudoeste 27 Sudoeste 0 -- -- 39
2020-02-03 15:00:00 20.9 5 Oeste 10 Sudoeste 0 -- -- 48
2020-02-03 14:00:00 20.2 4 Este 7 Este 0 -- -- 56
2020-02-03 13:00:00 16.7 4 Nordeste 7 Nordeste 0 -- -- 71
2020-02-03 12:00:00 12.3 2 Norte 5 Noroeste 0 -- -- 94
2020-02-03 11:00:00 9.1 2 Noroeste 5 Noroeste 0 -- -- 95
2020-02-03 10:00:00 6.5 0 Calma 3 Este 0 -- -- 99
2020-02-03 09:00:00 2.3 3 Este 4 Este 0 -- -- 100
2020-02-03 08:00:00 3.3 3 Este 4 Este 0.2 -- -- 100
2020-02-03 07:00:00 3.1 0 Calma 4 Sur 0 -- -- 100
2020-02-03 06:00:00 2.7 0 Calma 4 Este 0 -- -- 100
2020-02-03 05:00:00 2.1 0 Calma 5 Este 0 -- -- 100
2020-02-03 04:00:00 2.6 0 Calma 6 Nordeste 0 -- -- 100
2020-02-03 03:00:00 3.1 5 Nordeste 9 Sudoeste 0 -- -- 100
2020-02-03 02:00:00 4.6 4 Sur 9 Sudoeste 0 -- -- 100
2020-02-03 01:00:00 5.6 6 Oeste 21 Sur 0 -- -- 100
2020-02-03 00:00:00 6.4 4 Sudoeste 10 Sur 0 -- -- 100
2020-02-02 23:00:00 5.9 0 Calma 15 Sudoeste 0 -- -- 99
2020-02-02 22:00:00 7.3 8 Sudoeste 12 Sudoeste 0 -- -- 98
2020-02-02 21:00:00 8.3 4 Noroeste 14 Sudoeste 0 -- -- 94
2020-02-02 20:00:00 8.9 10 Sudoeste 22 Sudoeste 0 -- -- 92
2020-02-02 19:00:00 10.2 12 Sudoeste 20 Sudoeste 0 -- -- 89
2020-02-02 18:00:00 12.7 12 Oeste 23 Oeste 0 -- -- 82
2020-02-02 17:00:00 15.6 16 Oeste 24 Oeste 0 -- -- 69
2020-02-02 16:00:00 16.3 15 Oeste 27 Oeste 0 -- -- 69
2020-02-02 15:00:00 15.7 15 Oeste 25 Oeste 0 -- -- 71
2020-02-02 14:00:00 14.9 14 Oeste 25 Oeste 0 -- -- 74
2020-02-02 13:00:00 13.1 18 Oeste 30 Oeste 0 -- -- 77
2020-02-02 12:00:00 11.9 12 Sudoeste 21 Oeste 0 -- -- 84
2020-02-02 11:00:00 11 12 Oeste 17 Oeste 0 -- -- 89
2020-02-02 10:00:00 9.5 9 Oeste 20 Oeste 0 -- -- 95
2020-02-02 09:00:00 8.8 10 Oeste 22 Oeste 0 -- -- 96
2020-02-02 08:00:00 8.7 14 Oeste 19 Oeste 0 -- -- 96
2020-02-02 07:00:00 8.5 10 Sudoeste 17 Oeste 0 -- -- 95
2020-02-02 06:00:00 8.1 9 Oeste 15 Oeste 0 -- -- 97
2020-02-02 05:00:00 8.1 8 Oeste 17 Oeste 0 -- -- 97
2020-02-02 04:00:00 7.9 8 Oeste 15 Sudoeste 0 -- -- 97
2020-02-02 03:00:00 7.9 8 Sudoeste 19 Sudoeste 0 -- -- 98
2020-02-02 02:00:00 8.3 6 Sudoeste 12 Oeste 0 -- -- 98
2020-02-02 01:00:00 8.2 4 Oeste 15 Sudoeste 0 -- -- 98
2020-02-02 00:00:00 7.7 6 Sudoeste 10 Sudoeste 0 -- -- 98
2020-02-01 23:00:00 5.7 2 Oeste 9 Oeste 0 -- -- 99
2020-02-01 22:00:00 7.1 0 Calma 11 Noroeste 0 -- -- 98
2020-02-01 21:00:00 8.3 3 Noroeste 14 Oeste 0 -- -- 96
2020-02-01 20:00:00 8.5 10 Oeste 14 Oeste 0 -- -- 94
2020-02-01 19:00:00 10.3 9 Oeste 15 Oeste 0 -- -- 89
2020-02-01 18:00:00 12.5 10 Oeste 26 Oeste 0 -- -- 85
2020-02-01 17:00:00 13.6 16 Oeste 29 Oeste 0 -- -- 81
2020-02-01 16:00:00 13.9 22 Oeste 33 Oeste 0 -- -- 75
2020-02-01 15:00:00 13.2 21 Oeste 35 Oeste 0 -- -- 81
2020-02-01 14:00:00 13.4 26 Oeste 39 Oeste 0 -- -- 82
2020-02-01 13:00:00 13.4 23 Oeste 40 Oeste 0 -- -- 82
2020-02-01 12:00:00 12.2 19 Oeste 40 Oeste 0 -- -- 90
2020-02-01 11:00:00 12.1 25 Oeste 37 Oeste 0 -- -- 88
2020-02-01 10:00:00 11.1 21 Oeste 31 Oeste 0 -- -- 91
2020-02-01 09:00:00 9.7 13 Oeste 33 Oeste 0 -- -- 94
2020-02-01 08:00:00 10.3 22 Oeste 36 Oeste 0 -- -- 92
2020-02-01 07:00:00 10.1 21 Oeste 31 Sudoeste 0 -- -- 95
2020-02-01 06:00:00 9.4 22 Sudoeste 34 Sudoeste 0 -- -- 94
2020-02-01 05:00:00 8.8 19 Sudoeste 37 Sudoeste 0.2 -- -- 96
2020-02-01 04:00:00 8.6 20 Sudoeste 33 Sudoeste 0 -- -- 97
2020-02-01 03:00:00 8.5 7 Sudoeste 30 Sudoeste 0 -- -- 96
2020-02-01 02:00:00 8.7 20 Sudoeste 39 Sudoeste 0 -- -- 95
2020-02-01 01:00:00 8.5 22 Sudoeste 35 Sur 0 -- -- 96
2020-02-01 00:00:00 8.6 21 Sudoeste 33 Sudoeste 0 -- -- 96
2020-01-31 23:00:00 8.8 18 Sudoeste 27 Sur 0 -- -- 92
2020-01-31 22:00:00 8.5 14 Sudoeste 24 Sudoeste 0 -- -- 91
2020-01-31 21:00:00 8 12 Sudoeste 16 Sur 0 -- -- 93
2020-01-31 20:00:00 9 11 Sudoeste 18 Sudoeste 0 -- -- 89
2020-01-31 19:00:00 8.8 12 Sudoeste 21 Sudoeste 0 -- -- 90
2020-01-31 18:00:00 9.6 11 Sudoeste 26 Sudoeste 0 -- -- 89
2020-01-31 17:00:00 10.2 14 Sudoeste 27 Sudoeste 0 -- -- 84
2020-01-31 16:00:00 10.4 17 Sudoeste 28 Sudoeste 0 -- -- 84
2020-01-31 15:00:00 11.3 15 Sudoeste 36 Oeste 0 -- -- 82
2020-01-31 14:00:00 11.5 19 Oeste 27 Oeste 0 -- -- 79
2020-01-31 13:00:00 11.3 21 Oeste 35 Oeste 0 -- -- 84
2020-01-31 12:00:00 9.9 22 Oeste 35 Oeste 0.2 -- -- 93
2020-01-31 11:00:00 9.9 21 Oeste 30 Oeste 0 -- -- 92
2020-01-31 10:00:00 9.1 13 Oeste 27 Oeste 0 -- -- 95
2020-01-31 09:00:00 8.4 13 Oeste 20 Oeste 0 -- -- 97
2020-01-31 08:00:00 8.2 12 Oeste 19 Oeste 0 -- -- 98
2020-01-31 07:00:00 8.2 9 Oeste 25 Oeste 0 -- -- 98
2020-01-31 06:00:00 7.9 11 Sudoeste 18 Sudoeste 0 -- -- 98
2020-01-31 05:00:00 7.4 8 Sudoeste 19 Sudoeste 0.2 -- -- 98
2020-01-31 04:00:00 6.9 10 Sudoeste 22 Sudoeste 0.4 -- -- 98
2020-01-31 03:00:00 7.3 12 Sudoeste 23 Sudoeste 0 -- -- 96
2020-01-31 02:00:00 6.8 13 Sudoeste 27 Sudoeste 0.2 -- -- 97
2020-01-31 01:00:00 6.9 15 Sudoeste 23 Sudoeste 0.2 -- -- 97
2020-01-31 00:00:00 6.8 12 Sudoeste 21 Sudoeste 0.2 -- -- 97
2020-01-30 23:00:00 7 10 Sudoeste 21 Sudoeste 0 -- -- 97
2020-01-30 22:00:00 7.4 14 Sudoeste 23 Sudoeste 0.6 -- -- 94
2020-01-30 21:00:00 7.1 11 Sudoeste 19 Sudoeste 0 -- -- 96
2020-01-30 20:00:00 7.4 4 Oeste 13 Oeste 0 -- -- 89
2020-01-30 19:00:00 7.4 10 Oeste 23 Oeste 0 -- -- 88
2020-01-30 18:00:00 8 17 Oeste 27 Oeste 0 -- -- 85
2020-01-30 17:00:00 8.6 19 Oeste 38 Oeste 0 -- -- 79
2020-01-30 16:00:00 9.1 26 Oeste 41 Oeste 0 -- -- 76
2020-01-30 15:00:00 9.3 24 Oeste 36 Oeste 0 -- -- 76
2020-01-30 14:00:00 9.9 19 Oeste 29 Oeste 0 -- -- 76
2020-01-30 13:00:00 9.6 18 Oeste 37 Oeste 0 -- -- 74
2020-01-30 12:00:00 8.8 26 Oeste 39 Oeste 0 -- -- 77
2020-01-30 11:00:00 8.8 22 Oeste 32 Sudoeste 0 -- -- 85
2020-01-30 10:00:00 7.7 15 Sudoeste 24 Sudoeste 0 -- -- 89
2020-01-30 09:00:00 7.4 18 Sudoeste 30 Sudoeste 0 -- -- 92
2020-01-30 08:00:00 7.7 13 Sudoeste 21 Oeste 0 -- -- 91
2020-01-30 07:00:00 7.4 11 Oeste 19 Oeste 0 -- -- 94
2020-01-30 06:00:00 7.7 12 Sudoeste 21 Sudoeste 0 -- -- 93
2020-01-30 05:00:00 7.9 13 Sudoeste 23 Sudoeste 0 -- -- 94
2020-01-30 04:00:00 8.2 14 Sudoeste 25 Sudoeste 0 -- -- 91
2020-01-30 03:00:00 8.1 15 Sudoeste 28 Sudoeste 0 -- -- 93
2020-01-30 02:00:00 8.1 15 Sudoeste 27 Sudoeste 0 -- -- 92
2020-01-30 01:00:00 8.2 14 Sudoeste 24 Sudoeste 0 -- -- 94
2020-01-30 00:00:00 8.5 16 Sudoeste 23 Sudoeste 0 -- -- 91
2020-01-29 23:00:00 8.7 18 Sudoeste 26 Sudoeste 0 -- -- 90
2020-01-29 22:00:00 8.7 12 Sudoeste 20 Oeste 0 -- -- 91
2020-01-29 21:00:00 9.1 10 Sudoeste 17 Sudoeste 0 -- -- 89
2020-01-29 20:00:00 8.5 3 Oeste 13 Oeste 0 -- -- 89
2020-01-29 19:00:00 8.7 5 Sudoeste 17 Oeste 0 -- -- 86
2020-01-29 18:00:00 9.9 10 Oeste 24 Oeste 0 -- -- 83
2020-01-29 17:00:00 10.6 19 Oeste 33 Oeste 0 -- -- 79
2020-01-29 16:00:00 11.8 15 Sudoeste 29 Oeste 0 -- -- 73
2020-01-29 15:00:00 12.6 14 Sudoeste 33 Oeste 0 -- -- 72
2020-01-29 14:00:00 11.9 25 Oeste 42 Oeste 0 -- -- 66
2020-01-29 13:00:00 10.4 23 Oeste 40 Oeste 0 -- -- 78
2020-01-29 12:00:00 11.1 23 Oeste 35 Oeste 0 -- -- 79
2020-01-29 11:00:00 9.7 23 Oeste 33 Oeste 0 -- -- 85
2020-01-29 10:00:00 8.4 13 Sudoeste 27 Oeste 0 -- -- 93
2020-01-29 09:00:00 8.2 19 Oeste 29 Oeste 0 -- -- 92
2020-01-29 08:00:00 8.2 17 Oeste 24 Sudoeste 0 -- -- 92
2020-01-29 07:00:00 8.1 15 Oeste 27 Oeste 0 -- -- 96
2020-01-29 06:00:00 8.1 15 Oeste 36 Oeste 0 -- -- 97
2020-01-29 05:00:00 8.5 26 Oeste 37 Oeste 0 -- -- 94
2020-01-29 04:00:00 8.6 21 Oeste 32 Oeste 0 -- -- 94
2020-01-29 03:00:00 8.1 13 Sudoeste 25 Sudoeste 0.2 -- -- 97
2020-01-29 02:00:00 8 12 Sudoeste 29 Sudoeste 0.4 -- -- 96
2020-01-29 01:00:00 8.2 14 Sudoeste 26 Sudoeste 0 -- -- 96
2020-01-29 00:00:00 8.5 17 Sudoeste 27 Sudoeste 0 -- -- 94
2020-01-28 23:00:00 8.7 14 Sudoeste 25 Sudoeste 0 -- -- 92
2020-01-28 22:00:00 8.7 15 Sudoeste 23 Sudoeste 0 -- -- 93
2020-01-28 21:00:00 8.8 15 Oeste 23 Oeste 0 -- -- 91
2020-01-28 20:00:00 9 17 Oeste 35 Oeste 0 -- -- 91
2020-01-28 19:00:00 8.8 18 Oeste 38 Sudoeste 0 -- -- 94
2020-01-28 18:00:00 9.4 19 Oeste 31 Oeste 0.6 -- -- 91
2020-01-28 17:00:00 9.6 19 Oeste 36 Oeste 0.2 -- -- 93
2020-01-28 16:00:00 10.6 14 Sudoeste 33 Sudoeste 0 -- -- 87
2020-01-28 15:00:00 9.9 19 Sudoeste 43 Oeste 0.2 -- -- 89
2020-01-28 14:00:00 9.2 17 Sudoeste 30 Sudoeste 0.6 -- -- 93
2020-01-28 13:00:00 8.2 19 Sudoeste 33 Oeste 1 -- -- 96
2020-01-28 12:00:00 8.8 23 Oeste 37 Oeste 0.6 -- -- 95
2020-01-28 11:00:00 8.5 15 Sudoeste 28 Sudoeste 0 -- -- 90
2020-01-28 10:00:00 7.6 17 Sudoeste 34 Sudoeste 0 -- -- 91
2020-01-28 09:00:00 7.5 18 Sudoeste 33 Sudoeste 0 -- -- 90
2020-01-28 08:00:00 7.5 15 Sudoeste 35 Sudoeste 0 -- -- 90
2020-01-28 07:00:00 7.2 20 Sudoeste 38 Sudoeste 0 -- -- 90
2020-01-28 06:00:00 7.1 25 Sudoeste 45 Sudoeste 0 -- -- 91
2020-01-28 05:00:00 6.4 20 Sudoeste 35 Sudoeste 0.2 -- -- 94
2020-01-28 04:00:00 6 19 Sudoeste 35 Sudoeste 0 -- -- 96
2020-01-28 03:00:00 6 18 Sudoeste 40 Sudoeste 0 -- -- 93
2020-01-28 02:00:00 5.5 28 Sudoeste 46 Sur 0 -- -- 96
2020-01-28 01:00:00 5.2 27 Sudoeste 44 Sudoeste 0 -- -- 96
2020-01-28 00:00:00 5 25 Sudoeste 41 Sudoeste 0 -- -- 95
2020-01-27 23:00:00 5 20 Sudoeste 37 Sudoeste 0 -- -- 94
2020-01-27 22:00:00 4.9 21 Sudoeste 37 Sudoeste 0 -- -- 93
2020-01-27 21:00:00 4.7 19 Sudoeste 40 Sudoeste 0 -- -- 94
2020-01-27 20:00:00 4.2 21 Sudoeste 45 Sudoeste 0 -- -- 94
2020-01-27 19:00:00 4.6 27 Sudoeste 57 Sudoeste 0 -- -- 94
2020-01-27 18:00:00 4.5 35 Sudoeste 61 Sudoeste 0 -- -- 94
2020-01-27 17:00:00 5 38 Sudoeste 61 Sur 0.2 -- -- 91
2020-01-27 16:00:00 5.1 33 Sudoeste 53 Sur 0 -- -- 90
2020-01-27 15:00:00 5.9 36 Sudoeste 55 Sudoeste 0 -- -- 83
2020-01-27 14:00:00 6 37 Sudoeste 53 Sudoeste 0 -- -- 83
2020-01-27 13:00:00 5.7 23 Sudoeste 44 Sudoeste 0 -- -- 84
2020-01-27 12:00:00 4.5 27 Sudoeste 45 Sudoeste 0 -- -- 87
2020-01-27 11:00:00 3.1 27 Sudoeste 41 Sudoeste 0 -- -- 92
2020-01-27 10:00:00 1.7 21 Sudoeste 38 Sur 0 -- -- 94
2020-01-27 09:00:00 1.1 18 Sudoeste 34 Sur 0 -- -- 96
2020-01-27 08:00:00 0.9 11 Sudoeste 23 Sudoeste 0 -- -- 98
2020-01-27 07:00:00 0.7 15 Sudoeste 29 Sudoeste 0 -- -- 97
2020-01-27 06:00:00 0.6 14 Sudoeste 30 Sudoeste 0 -- -- 98
2020-01-27 05:00:00 0.5 17 Sudoeste 27 Sudoeste 0 -- -- 96
2020-01-27 04:00:00 0.6 18 Sudoeste 25 Sur 0 -- -- 92
2020-01-27 03:00:00 2.8 11 Sudoeste 30 Sudoeste 0 -- -- 79
2020-01-27 02:00:00 1.7 8 Sudoeste 17 Sudoeste 0 -- -- 86
2020-01-27 01:00:00 1.4 8 Oeste 23 Sudoeste 0 -- -- 88
2020-01-27 00:00:00 3.2 12 Sudoeste 20 Sudoeste 0 -- -- 83
2020-01-26 23:00:00 2.8 13 Sudoeste 20 Sudoeste 0 -- -- 84
2020-01-26 22:00:00 0.7 6 Oeste 9 Oeste 0 -- -- 97
2020-01-26 21:00:00 1.8 4 Oeste 15 Oeste 0 -- -- 95
2020-01-26 20:00:00 2.2 8 Oeste 13 Oeste 0 -- -- 91
2020-01-26 19:00:00 3 8 Oeste 15 Oeste 0 -- -- 90
2020-01-26 18:00:00 5.3 13 Oeste 27 Oeste 0 -- -- 81
2020-01-26 17:00:00 7.4 19 Oeste 29 Oeste 0 -- -- 71
2020-01-26 16:00:00 8.2 18 Oeste 24 Oeste 0 -- -- 69
2020-01-26 15:00:00 6 18 Oeste 35 Oeste 0 -- -- 80
2020-01-26 14:00:00 7.9 18 Oeste 31 Oeste 0 -- -- 68
2020-01-26 13:00:00 6 19 Oeste 30 Oeste 0 -- -- 82
2020-01-26 12:00:00 5.3 19 Oeste 27 Oeste 0 -- -- 87
2020-01-26 11:00:00 4.5 17 Oeste 25 Noroeste 0 -- -- 93
2020-01-26 10:00:00 3.6 17 Noroeste 26 Oeste 0 -- -- 93
2020-01-26 09:00:00 2.5 20 Oeste 32 Oeste 0 -- -- 97
2020-01-26 08:00:00 3.4 16 Oeste 23 Oeste 0 -- -- 99
2020-01-26 07:00:00 3.6 14 Oeste 21 Oeste 0 -- -- 100
2020-01-26 06:00:00 3.4 4 Oeste 7 Oeste 0 -- -- 100
2020-01-26 05:00:00 3.3 3 Oeste 7 Oeste 0 -- -- 100
2020-01-26 04:00:00 2.9 5 Oeste 6 Oeste 0 -- -- 99
2020-01-26 03:00:00 3.3 3 Oeste 6 Oeste 0.2 -- -- 99
2020-01-26 02:00:00 3.8 3 Oeste 5 Oeste 0 -- -- 99
2020-01-26 01:00:00 3.9 2 Sur 3 Sudeste 0.2 -- -- 99
2020-01-26 00:00:00 4.1 0 Calma 5 Sudeste 0.2 -- -- 98
2020-01-25 23:00:00 4.2 0 Calma 6 Este 0.2 -- -- 98
2020-01-25 22:00:00 4.4 4 Sudeste 9 Sudeste 0 -- -- 97
2020-01-25 21:00:00 4.5 3 Sudeste 8 Sudeste 0.2 -- -- 97
2020-01-25 20:00:00 4.9 3 Sudeste 8 Este 0.6 -- -- 97
2020-01-25 19:00:00 5 4 Este 10 Este 0.4 -- -- 96
2020-01-25 18:00:00 5.3 6 Este 21 Este 0.6 -- -- 94
2020-01-25 17:00:00 6 13 Este 23 Este 0.2 -- -- 92
2020-01-25 16:00:00 6.9 12 Este 20 Este 0 -- -- 87
2020-01-25 15:00:00 6.2 13 Sudeste 21 Este 0 -- -- 89
2020-01-25 14:00:00 5.8 15 Este 22 Sudeste 0 -- -- 89
2020-01-25 13:00:00 5.5 13 Sudeste 21 Este 0 -- -- 89
2020-01-25 12:00:00 5 13 Este 21 Este 0 -- -- 89
2020-01-25 11:00:00 4.3 14 Este 21 Este 0 -- -- 91
2020-01-25 10:00:00 3.5 12 Este 20 Este 0.2 -- -- 97
2020-01-25 09:00:00 2.9 9 Sudeste 18 Sudeste 1.6 -- -- 98
2020-01-25 08:00:00 2.9 9 Sudeste 14 Sudeste 0.4 -- -- 97
2020-01-25 07:00:00 3 10 Sudeste 15 Sudeste 0.2 -- -- 95
2020-01-25 06:00:00 2.7 5 Este 9 Este 0 -- -- 95
2020-01-25 05:00:00 2.5 4 Este 13 Sudeste 0 -- -- 96
2020-01-25 04:00:00 2.7 2 Sudeste 14 Sudeste 0 -- -- 93
2020-01-25 03:00:00 3.1 6 Sudeste 12 Este 0 -- -- 94
2020-01-25 02:00:00 3.3 7 Sudeste 15 Sudeste 0 -- -- 93
2020-01-25 01:00:00 3.9 10 Sudeste 15 Sudeste 0 -- -- 93
2020-01-25 00:00:00 4 8 Sudeste 12 Sudeste 0 -- -- 93
2020-01-24 23:00:00 4.1 7 Sudeste 14 Este 0 -- -- 95
2020-01-24 22:00:00 4.1 5 Este 8 Sur 0.4 -- -- 96
2020-01-24 21:00:00 4.5 3 Sur 6 Este 0 -- -- 92
2020-01-24 20:00:00 4.8 4 Sudeste 9 Sudeste 0 -- -- 91
2020-01-24 19:00:00 5.1 6 Sudeste 13 Sudeste 0 -- -- 88
2020-01-24 18:00:00 5.7 7 Sudeste 14 Sudeste 0 -- -- 85
2020-01-24 17:00:00 6.3 6 Sur 14 Sur 0 -- -- 81
2020-01-24 16:00:00 6.5 9 Sur 21 Sur 0 -- -- 79
2020-01-24 15:00:00 6.8 8 Sur 13 Sudeste 0 -- -- 79
2020-01-24 14:00:00 5.6 5 Sudeste 17 Sur 0 -- -- 83
2020-01-24 13:00:00 6 9 Sudeste 18 Sur 0 -- -- 80
2020-01-24 12:00:00 5.5 9 Sudeste 17 Sudeste 0 -- -- 82
2020-01-24 11:00:00 6.3 10 Sudeste 16 Sudeste 0 -- -- 84
2020-01-24 10:00:00 4 0 Calma 8 Sudeste 0 -- -- 98
2020-01-24 09:00:00 1.2 7 Sudeste 9 Sudeste 0 -- -- 100
2020-01-24 08:00:00 0.5 0 Calma 8 Sudeste 0 -- -- 99
2020-01-24 07:00:00 1.2 4 Sudeste 12 Este 0 -- -- 99
2020-01-24 06:00:00 1.8 5 Sudeste 11 Este 0 -- -- 98
2020-01-24 05:00:00 1.8 9 Este 16 Este 0 -- -- 97
2020-01-24 04:00:00 1.5 7 Sudeste 13 Este 0 -- -- 97
2020-01-24 03:00:00 1.7 6 Sudeste 14 Este 0 -- -- 97
2020-01-24 02:00:00 1.7 8 Sudeste 12 Sudeste 0 -- -- 97
2020-01-24 01:00:00 2.2 8 Este 19 Sudeste 0 -- -- 95
2020-01-24 00:00:00 2.7 12 Sudeste 18 Sudeste 0 -- -- 94
2020-01-23 23:00:00 2.6 12 Este 20 Sudeste 0 -- -- 93
2020-01-23 22:00:00 2.8 12 Sudeste 18 Sudeste 0 -- -- 92
2020-01-23 21:00:00 2.9 10 Este 18 Sudeste 0 -- -- 93
2020-01-23 20:00:00 2.9 9 Sudeste 16 Este 0 -- -- 94
2020-01-23 19:00:00 3.3 10 Sudeste 17 Sudeste 0 -- -- 93
2020-01-23 18:00:00 3.7 10 Este 19 Sudeste 0 -- -- 92
2020-01-23 17:00:00 4.3 11 Sudeste 19 Sudeste 0 -- -- 93
2020-01-23 16:00:00 6.2 10 Sudeste 18 Este 0 -- -- 87
2020-01-23 15:00:00 9.2 4 Sur 12 Sudeste 0 -- -- 69
2020-01-23 14:00:00 7.7 6 Sudoeste 14 Sudoeste 0 -- -- 72
2020-01-23 13:00:00 6.6 2 Norte 11 Este 0 -- -- 77
2020-01-23 12:00:00 3.3 8 Sudeste 14 Este 0 -- -- 91
2020-01-23 11:00:00 2.3 5 Este 11 Este 0 -- -- 97
2020-01-23 10:00:00 1.9 4 Sudeste 6 Sudeste 0 -- -- 99
2020-01-23 09:00:00 1.4 4 Este 13 Este 0 -- -- 100
2020-01-23 08:00:00 1.4 5 Sudeste 10 Este 0 -- -- 100
2020-01-23 07:00:00 1.5 7 Sudeste 17 Este 0 -- -- 100
2020-01-23 06:00:00 1.7 8 Sudeste 13 Este 0 -- -- 100
2020-01-23 05:00:00 1.7 6 Sudeste 17 Este 0 -- -- 100
2020-01-23 04:00:00 1.7 9 Este 24 Este 0 -- -- 100
2020-01-23 03:00:00 2.1 11 Este 21 Este 0 -- -- 100
2020-01-23 02:00:00 2.1 3 Sudeste 7 Sudeste 0 -- -- 100
2020-01-23 01:00:00 2.1 0 Calma 8 Este 0 -- -- 99
2020-01-23 00:00:00 2.2 2 Este 6 Este 0 -- -- 98
2020-01-22 23:00:00 2.5 2 Sudeste 12 Sudeste 0 -- -- 97
2020-01-22 22:00:00 2.8 10 Sudeste 17 Este 0 -- -- 94
2020-01-22 21:00:00 2.9 13 Este 21 Este 0 -- -- 93
2020-01-22 20:00:00 2.9 16 Este 24 Nordeste 0 -- -- 96
2020-01-22 19:00:00 2.8 7 Este 17 Este 0 -- -- 98
2020-01-22 18:00:00 3 13 Este 20 Este 0 -- -- 95
2020-01-22 17:00:00 4.2 8 Sudeste 21 Este 0 -- -- 92
2020-01-22 16:00:00 5.1 14 Este 23 Este 0 -- -- 88
2020-01-22 15:00:00 4.9 11 Este 18 Este 0 -- -- 88
2020-01-22 14:00:00 4.7 13 Este 21 Este 0 -- -- 94
2020-01-22 13:00:00 3.6 15 Este 22 Este 0 -- -- 97
2020-01-22 12:00:00 2.6 9 Este 19 Este 0 -- -- 99
2020-01-22 11:00:00 2.3 11 Este 18 Este 0 -- -- 99
2020-01-22 10:00:00 1.8 8 Sudeste 13 Este 0 -- -- 98
2020-01-22 09:00:00 2.1 9 Este 14 Este 0 -- -- 99
2020-01-22 08:00:00 1.8 7 Este 15 Este 0 -- -- 99
2020-01-22 07:00:00 1.8 13 Este 20 Este 0 -- -- 99
2020-01-22 06:00:00 1.1 9 Nordeste 14 Nordeste 0 -- -- 99
2020-01-22 05:00:00 0.8 5 Nordeste 9 Nordeste 0 -- -- 99
2020-01-22 04:00:00 0.8 3 Sudeste 6 Este 0.4 -- -- 99
2020-01-22 03:00:00 0.5 3 Sudeste 6 Sudeste 0.2 -- -- 99
2020-01-22 02:00:00 0.3 3 Este 7 Este 0.2 -- -- 98
2020-01-22 01:00:00 0.2 3 Nordeste 14 Este 0.8 -- -- 98
2020-01-22 00:00:00 0.8 9 Este 27 Nordeste 2.8 -- -- 97